EW9582 Weather Reports


time (UTC)temp
C
wind
direction
speed
KPH
gust
KPH
rain 1hr
cm
rain 24hr
cm
rain mn
cm
humidity
%
barometer
mb
20200229103211 13 309 11.3 14.5 0.00 0.00 0.00 64 1015.2
20200229101609 13 315 9.7 14.5 0.00 0.00 0.00 63 1015.2
20200229100133 13 329 9.7 14.5 0.00 0.00 0.00 61 1015.2
20200229094627 14 331 6.4 9.7 0.00 0.00 0.00 57 1015.3
20200229093124 15 317 6.4 16.1 0.00 0.00 0.00 56 1015.4
20200229090113 14 331 12.9 17.7 0.00 0.00 0.00 58 1015.7
20200229084532 14 314 12.9 19.3 0.00 0.00 0.00 57 1015.6
20200229083033 13 322 9.7 12.9 0.00 0.00 0.00 59 1015.7
20200229081607 15 306 14.5 16.1 0.00 0.00 0.00 56 1015.9
20200229080026 15 313 11.3 16.1 0.00 0.00 0.00 56 1016.1
20200229074520 15 314 12.9 16.1 0.00 0.00 0.00 55 1016.3
20200229073038 15 313 12.9 17.7 0.00 0.00 0.00 57 1016.6
20200229071527 15 323 11.3 16.1 0.00 0.00 0.00 57 1016.7
20200229070011 15 323 11.3 14.5 0.00 0.00 0.00 58 1016.9
20200229064526 15 319 9.7 16.1 0.00 0.00 0.00 58 1016.9
20200229063041 15 327 11.3 16.1 0.00 0.00 0.00 54 1016.9
20200229061508 16 303 11.3 14.5 0.00 0.00 0.00 54 1017.0
20200229060032 16 333 8.0 14.5 0.00 0.00 0.00 54 1017.1
20200229054513 16 336 9.7 14.5 0.00 0.00 0.00 54 1017.1
20200229053007 16 340 11.3 16.1 0.00 0.00 0.00 53 1017.2
20200229051505 17 342 11.3 19.3 0.00 0.00 0.00 54 1017.3
20200229050011 17 346 12.9 17.7 0.00 0.00 0.00 56 1017.2
20200229044525 17 355 9.7 16.1 0.00 0.00 0.00 59 1017.3
20200229043006 17 355 12.9 16.1 0.00 0.00 0.00 61 1017.3
20200229041506 17 346 11.3 16.1 0.00 0.00 0.00 62 1017.1
20200229040016 17 343 14.5 17.7 0.00 0.00 0.00 62 1017.0
20200229034504 18 338 9.7 17.7 0.00 0.00 0.00 59 1016.9
20200229033001 19 304 11.3 16.1 0.00 0.00 0.00 57 1016.9
20200229031713 19 298 11.3 19.3 0.00 0.00 0.00 61 1016.8
20200229031503 19 308 11.3 19.3 0.00 0.00 0.00 62 1016.8
20200229030243 18 288 8.0 14.5 0.00 0.00 0.00 71 1016.6
20200229024732 18 301 6.4 8.0 0.00 0.00 0.00 73 1016.4
20200229023310 19 294 8.0 12.9 0.00 0.00 0.00 73 1016.4
20200229021655 20 325 6.4 8.0 0.00 0.00 0.00 73 1016.2
20200229020330 20 259 4.8 11.3 0.00 0.00 0.00 73 1016.1
20200229014603 21 250 0.0 11.3 0.00 0.00 0.00 72 1015.8
20200229013102 21 237 6.4 19.3 0.00 0.00 0.00 72 1015.8
20200229011631 21 249 11.3 19.3 0.00 0.00 0.00 72 1015.9
20200229010129 21 264 11.3 19.3 0.00 0.00 0.00 71 1015.7
20200229004715 21 74 1.6 12.9 0.00 0.00 0.00 71 1015.6
20200229003200 21 100 6.4 14.5 0.00 0.00 0.00 71 1015.2
20200229001702 22 112 9.7 14.5 0.00 0.00 0.00 70 1014.9
20200229000155 22 92 11.3 17.7 0.00 0.00 0.00 70 1014.9
20200228234639 22 93 12.9 20.9 0.00 0.00 0.00 70 1014.8
20200228233208 22 90 12.9 19.3 0.00 0.00 0.00 70 1014.8
20200228231626 22 88 12.9 20.9 0.00 0.00 0.00 68 1014.8
20200228230116 22 91 14.5 20.9 0.00 0.00 0.00 67 1014.9
20200228224727 22 98 14.5 20.9 0.00 0.00 0.00 66 1014.8
20200228223222 22 104 16.1 22.5 0.00 0.00 0.00 65 1014.7
20200228221646 23 127 12.9 19.3 0.00 0.00 0.00 64 1014.7
20200228220126 23 90 11.3 20.9 0.00 0.00 0.00 65 1014.7
20200228214554 23 111 16.1 22.5 0.00 0.00 0.00 65 1014.5
20200228213146 23 78 12.9 20.9 0.00 0.00 0.00 64 1014.8
20200228211551 23 111 14.5 22.5 0.00 0.00 0.00 62 1014.8
20200228210042 23 126 14.5 22.5 0.00 0.00 0.00 61 1015.1
20200228204611 23 91 16.1 24.1 0.00 0.00 0.00 62 1015.4
20200228203043 24 110 14.5 19.3 0.00 0.00 0.00 59 1015.6
20200228201614 24 136 11.3 16.1 0.00 0.00 0.00 60 1016.3
20200228200037 25 110 9.7 16.1 0.00 0.00 0.00 59 1016.3
20200228194543 23 113 8.0 12.9 0.00 0.00 0.00 62 1016.4
20200228193023 23 153 8.0 12.9 0.00 0.00 0.00 54 1016.7
20200228191607 23 90 8.0 14.5 0.00 0.00 0.00 52 1016.7
20200228190022 23 129 8.0 14.5 0.00 0.00 0.00 47 1017.2
20200228184530 22 140 9.7 14.5 0.00 0.00 0.00 45 1017.5
20200228183018 23 136 9.7 12.9 0.00 0.00 0.00 44 1017.7
20200228181521 23 136 6.4 11.3 0.00 0.00 0.00 39 1018.0
20200228180047 23 144 6.4 11.3 0.00 0.00 0.00 36 1018.1
20200228174548 24 157 6.4 11.3 0.00 0.00 0.00 34 1018.1
20200228173024 24 165 3.2 8.0 0.00 0.00 0.00 31 1018.2
20200228171543 23 165 1.6 4.8 0.00 0.00 0.00 35 1018.1
20200228170028 22 157 3.2 9.7 0.00 0.00 0.00 41 1018.3
20200228164510 22 175 4.8 8.0 0.00 0.00 0.00 43 1018.2
20200228163035 23 75 3.2 6.4 0.00 0.00 0.00 38 1018.3
20200228161527 23 74 1.6 4.8 0.00 0.00 0.00 33 1018.1
20200228160240 21 346 0.0 4.8 0.00 0.00 0.00 32 1017.7
20200228154650 20 277 4.8 8.0 0.00 0.00 0.00 35 1017.5
20200228153222 18 337 8.0 12.9 0.00 0.00 0.00 39 1017.5
20200228151629 16 325 9.7 14.5 0.00 0.00 0.00 42 1017.3
20200228150104 15 321 9.7 14.5 0.00 0.00 0.00 45 1017.1
20200228144622 14 321 12.9 17.7 0.00 0.00 0.00 49 1017.0
20200228143041 13 312 12.9 17.7 0.00 0.00 0.00 54 1016.9
20200228141558 12 322 12.9 19.3 0.00 0.00 0.00 56 1016.7
20200228140040 12 329 14.5 19.3 0.00 0.00 0.00 58 1016.6
20200228134600 11 312 14.5 19.3 0.00 0.00 0.00 60 1016.6
20200228133049 11 311 16.1 19.3 0.00 0.00 0.00 60 1016.4
20200228131541 11 316 14.5 19.3 0.00 0.00 0.00 62 1016.2
20200228130045 11 319 14.5 17.7 0.00 0.00 0.00 63 1016.1
20200228124535 11 321 14.5 19.3 0.00 0.00 0.00 64 1016.0
20200228123039 11 325 12.9 17.7 0.00 0.00 0.00 62 1015.8
20200228121556 11 323 12.9 17.7 0.00 0.00 0.00 63 1015.9
20200228120019 11 313 14.5 17.7 0.00 0.00 0.00 62 1015.8
20200228114517 11 313 11.3 16.1 0.00 0.00 0.00 61 1015.9
20200228113036 12 319 12.9 19.3 0.00 0.00 0.00 59 1015.6
20200228111538 12 317 12.9 17.7 0.00 0.00 0.00 61 1015.5
20200228110010 12 327 12.9 16.1 0.00 0.00 0.00 63 1015.6
20200228104526 12 318 12.9 16.1 0.00 0.00 0.00 65 1015.6